createdAt,value
2018-02-21T00:01:41.558Z,32.50
2018-02-21T00:04:14.159Z,33.90
2018-02-21T00:06:43.238Z,33.47
2018-02-21T00:09:19.290Z,32.80
2018-02-21T00:11:48.588Z,33.07
2018-02-21T00:14:18.020Z,32.70
2018-02-21T00:16:47.162Z,34.53
2018-02-21T00:19:19.692Z,36.40
2018-02-21T00:21:48.685Z,33.50
2018-02-21T00:24:25.224Z,34.97
2018-02-21T00:26:54.500Z,33.90
2018-02-21T00:29:23.872Z,35.43
2018-02-21T00:31:53.665Z,33.17
2018-02-21T00:34:26.507Z,33.57
2018-02-21T00:36:55.480Z,35.10
2018-02-21T00:39:27.570Z,34.23
2018-02-21T00:41:57.036Z,34.23
2018-02-21T00:44:29.997Z,36.70
2018-02-21T00:46:59.785Z,34.80
2018-02-21T00:49:32.691Z,34.97
2018-02-21T00:52:02.449Z,34.73
2018-02-21T00:54:35.326Z,35.33
2018-02-21T00:57:04.590Z,35.83
2018-02-21T00:59:35.981Z,37.93
2018-02-21T01:02:04.949Z,35.40
2018-02-21T01:04:38.124Z,35.00
2018-02-21T01:07:07.853Z,35.60
2018-02-21T01:12:17.162Z,38.73
2018-02-21T01:14:46.231Z,37.73
2018-02-21T01:17:15.217Z,39.10
2018-02-21T01:19:45.775Z,36.67
2018-02-21T01:22:14.735Z,38.40
2018-02-21T01:24:47.181Z,38.47
2018-02-21T01:27:17.436Z,37.97
2018-02-21T01:29:53.463Z,36.77
2018-02-21T01:32:22.464Z,37.67
2018-02-21T01:34:52.385Z,39.20
2018-02-21T01:37:21.387Z,37.83
2018-02-21T01:39:58.226Z,37.43
2018-02-21T01:42:27.245Z,36.83
2018-02-21T01:44:57.712Z,36.27
2018-02-21T01:47:26.928Z,37.27
2018-02-21T01:50:00.041Z,37.60
2018-02-21T01:52:29.066Z,38.80
2018-02-21T01:55:05.508Z,38.10
2018-02-21T01:57:34.511Z,38.40
2018-02-21T02:00:05.104Z,36.80
2018-02-21T02:02:34.925Z,38.83
2018-02-21T02:05:07.607Z,38.77
2018-02-21T02:07:36.672Z,38.10
2018-02-21T02:10:13.738Z,37.60
2018-02-21T02:12:42.965Z,39.07
2018-02-21T02:15:13.032Z,39.37
2018-02-21T02:17:41.942Z,40.03
2018-02-21T02:20:15.115Z,37.33
2018-02-21T02:22:44.081Z,40.17
2018-02-21T02:25:16.721Z,39.83
2018-02-21T02:27:46.735Z,41.47
2018-02-21T02:30:19.059Z,37.87
2018-02-21T02:32:47.993Z,40.07
2018-02-21T02:35:20.421Z,38.83
2018-02-21T02:37:49.407Z,39.27
2018-02-21T02:40:26.233Z,39.57
2018-02-21T02:42:55.200Z,39.63
2018-02-21T02:45:24.440Z,39.23
2018-02-21T02:47:54.455Z,38.97
2018-02-21T02:50:25.811Z,39.03
2018-02-21T02:52:55.085Z,38.93
2018-02-21T02:55:27.980Z,38.77
2018-02-21T02:57:57.751Z,39.10
2018-02-21T03:00:30.241Z,39.53
2018-02-21T03:03:00.065Z,39.03
2018-02-21T03:05:32.408Z,39.30
2018-02-21T03:08:01.354Z,40.27
2018-02-21T03:10:34.283Z,39.30
2018-02-21T03:13:03.608Z,40.27
2018-02-21T03:15:36.475Z,38.87
2018-02-21T03:18:05.423Z,38.10
2018-02-21T03:20:38.614Z,39.33
2018-02-21T03:23:07.659Z,39.37
2018-02-21T03:25:41.230Z,39.73
2018-02-21T03:28:10.698Z,40.40
2018-02-21T03:30:43.992Z,38.67
2018-02-21T03:33:12.931Z,41.63
2018-02-21T03:35:45.221Z,40.40
2018-02-21T03:38:14.540Z,39.93
2018-02-21T03:40:47.741Z,39.57
2018-02-21T03:43:17.583Z,39.67
2018-02-21T03:45:50.477Z,39.93
2018-02-21T03:48:19.777Z,38.43
2018-02-21T03:50:52.580Z,39.93
2018-02-21T03:53:21.832Z,37.20
2018-02-21T03:55:58.249Z,38.23
2018-02-21T03:58:27.287Z,41.40
2018-02-21T04:00:57.098Z,40.17
2018-02-21T04:03:26.062Z,40.47
2018-02-21T04:06:00.000Z,40.37
2018-02-21T04:08:29.068Z,39.60
2018-02-21T04:11:02.271Z,39.90
2018-02-21T04:13:31.612Z,39.90
2018-02-21T04:16:04.920Z,39.07
2018-02-21T04:18:33.862Z,39.57
2018-02-21T04:21:07.779Z,40.43
2018-02-21T04:23:36.787Z,40.60
2018-02-21T04:26:13.523Z,41.13
2018-02-21T04:28:42.759Z,37.40
2018-02-21T04:31:12.489Z,39.40
2018-02-21T04:33:41.496Z,39.03
2018-02-21T04:36:15.206Z,39.57
2018-02-21T04:38:44.897Z,39.13
2018-02-21T04:41:17.754Z,39.57
2018-02-21T04:43:47.039Z,39.57
2018-02-21T04:46:19.018Z,38.73
2018-02-21T04:48:48.013Z,39.13
2018-02-21T04:51:20.980Z,40.17
2018-02-21T04:53:50.068Z,41.07
2018-02-21T04:56:22.424Z,39.17
2018-02-21T04:58:51.847Z,41.67
2018-02-21T05:01:24.831Z,41.73
2018-02-21T05:03:53.855Z,41.90
2018-02-21T05:06:26.893Z,36.43
2018-02-21T05:08:55.875Z,40.70
2018-02-21T05:11:28.924Z,41.03
2018-02-21T05:13:57.833Z,40.17
2018-02-21T05:16:30.416Z,39.73
2018-02-21T05:18:59.696Z,41.70
2018-02-21T05:21:32.432Z,41.00
2018-02-21T05:24:01.420Z,40.73
2018-02-21T05:26:34.636Z,41.40
2018-02-21T05:29:04.380Z,40.77
2018-02-21T05:31:37.801Z,38.13
2018-02-21T05:34:06.796Z,39.40
2018-02-21T05:36:39.277Z,42.50
2018-02-21T05:39:08.641Z,42.97
2018-02-21T05:41:41.635Z,40.37
2018-02-21T05:44:11.502Z,41.60
2018-02-21T05:46:48.599Z,40.43
2018-02-21T05:49:17.625Z,40.43
2018-02-21T05:51:47.348Z,40.73
2018-02-21T05:54:17.478Z,39.80
2018-02-21T05:56:48.169Z,40.57
2018-02-21T05:59:17.397Z,40.23
2018-02-21T06:01:50.491Z,38.07
2018-02-21T06:04:19.520Z,39.37
2018-02-21T06:06:55.613Z,37.73
2018-02-21T06:09:31.495Z,40.97
2018-02-21T06:12:00.634Z,40.93
2018-02-21T06:14:29.571Z,41.60
2018-02-21T06:16:59.293Z,39.97
2018-02-21T06:19:28.287Z,41.53
2018-02-21T06:22:00.364Z,41.03
2018-02-21T06:24:29.308Z,40.97
2018-02-21T06:27:05.735Z,41.63
2018-02-21T06:29:34.998Z,40.50
2018-02-21T06:32:06.351Z,40.63
2018-02-21T06:34:36.086Z,39.40
2018-02-21T06:37:07.947Z,40.70
2018-02-21T06:39:36.908Z,41.33
2018-02-21T06:42:14.760Z,40.50
2018-02-21T06:44:44.075Z,39.13
2018-02-21T06:47:13.716Z,40.43
2018-02-21T06:49:42.823Z,40.60
2018-02-21T06:52:16.896Z,40.63
2018-02-21T06:54:46.639Z,40.20
2018-02-21T06:57:19.445Z,40.30
2018-02-21T06:59:48.675Z,39.73
2018-02-21T07:02:28.692Z,40.07
2018-02-21T07:04:57.966Z,40.37
2018-02-21T07:07:26.998Z,40.33
2018-02-21T07:09:56.076Z,41.10
2018-02-21T07:12:25.100Z,40.37
2018-02-21T07:14:54.120Z,40.20
2018-02-21T07:17:25.764Z,40.07
2018-02-21T07:19:54.792Z,40.13
2018-02-21T07:22:31.562Z,40.60
2018-02-21T07:25:00.863Z,39.50
2018-02-21T07:27:30.020Z,40.17
2018-02-21T07:29:59.028Z,42.23
2018-02-21T07:32:32.990Z,41.10
2018-02-21T07:35:02.118Z,51.50
2018-02-21T07:37:35.144Z,44.23
2018-02-21T07:40:04.477Z,40.77
2018-02-21T07:42:37.283Z,40.73
2018-02-21T07:45:06.289Z,41.53
2018-02-21T07:47:39.942Z,40.77
2018-02-21T07:50:09.380Z,40.53
2018-02-21T07:52:41.643Z,41.27
2018-02-21T07:55:10.934Z,39.47
2018-02-21T07:57:43.563Z,40.43
2018-02-21T08:00:12.705Z,41.03
2018-02-21T08:02:48.029Z,42.10
2018-02-21T08:05:17.257Z,41.43
2018-02-21T08:07:48.970Z,41.00
2018-02-21T08:10:18.393Z,41.40
2018-02-21T08:12:50.865Z,42.13
2018-02-21T08:15:19.901Z,39.83
2018-02-21T08:17:54.899Z,41.77
2018-02-21T08:20:24.018Z,41.00
2018-02-21T08:22:57.718Z,38.67
2018-02-21T08:25:27.145Z,39.80
2018-02-21T08:27:59.971Z,39.10
2018-02-21T08:30:29.106Z,40.10
2018-02-21T08:33:05.842Z,38.90
2018-02-21T08:35:35.025Z,38.33
2018-02-21T08:38:04.484Z,39.40
2018-02-21T08:40:34.680Z,41.33
2018-02-21T08:43:07.401Z,40.50
2018-02-21T08:45:36.573Z,40.43
2018-02-21T08:48:10.163Z,38.93
2018-02-21T08:50:39.311Z,40.07
2018-02-21T08:53:12.787Z,40.17
2018-02-21T08:55:42.282Z,38.90
2018-02-21T08:58:19.984Z,38.83
2018-02-21T09:00:49.785Z,39.80
2018-02-21T09:03:19.614Z,40.83
2018-02-21T09:05:48.619Z,40.60
2018-02-21T09:08:25.200Z,37.70
2018-02-21T09:10:54.265Z,38.87
2018-02-21T09:13:23.356Z,39.47
2018-02-21T09:15:52.663Z,39.07
2018-02-21T09:18:21.786Z,39.50
2018-02-21T09:20:50.811Z,40.27
2018-02-21T09:23:24.356Z,37.97
2018-02-21T09:25:53.459Z,38.43
2018-02-21T09:28:30.192Z,37.40
2018-02-21T09:31:00.282Z,38.43
2018-02-21T09:33:30.105Z,36.80
2018-02-21T09:35:59.156Z,37.60
2018-02-21T09:38:32.161Z,37.53
2018-02-21T09:41:01.184Z,37.93
2018-02-21T09:43:31.434Z,37.77
2018-02-21T09:46:00.841Z,38.80
2018-02-21T09:48:37.031Z,40.17
2018-02-21T09:51:06.086Z,39.07
2018-02-21T09:53:35.455Z,38.17
2018-02-21T09:56:04.478Z,38.53
2018-02-21T09:58:38.016Z,37.77
2018-02-21T10:01:07.472Z,40.57
2018-02-21T10:03:40.461Z,40.30
2018-02-21T10:06:10.260Z,38.67
2018-02-21T10:08:42.531Z,38.87
2018-02-21T10:11:12.421Z,38.27
2018-02-21T10:13:45.073Z,40.80
2018-02-21T10:16:15.540Z,39.60
2018-02-21T10:18:47.244Z,41.13
2018-02-21T10:21:16.283Z,40.07
2018-02-21T10:23:53.124Z,41.53
2018-02-21T10:26:22.200Z,39.77
2018-02-21T10:28:52.267Z,41.03
2018-02-21T10:31:21.601Z,40.43
2018-02-21T10:33:58.084Z,41.47
2018-02-21T10:36:27.159Z,39.77
2018-02-21T10:38:57.153Z,41.80
2018-02-21T10:41:26.413Z,38.47
2018-02-21T10:43:58.985Z,39.67
2018-02-21T10:46:28.001Z,40.30
2018-02-21T10:49:01.594Z,41.90
2018-02-21T10:51:30.701Z,41.57
2018-02-21T10:54:06.873Z,41.37
2018-02-21T10:56:35.881Z,44.53
2018-02-21T10:59:06.457Z,42.70
2018-02-21T11:01:35.819Z,43.70
2018-02-21T11:04:08.990Z,42.43
2018-02-21T11:09:15.804Z,43.57
2018-02-21T11:11:44.874Z,45.10
2018-02-21T11:14:14.378Z,43.80
2018-02-21T11:16:43.472Z,43.97
2018-02-21T11:19:20.173Z,44.50
2018-02-21T11:21:50.075Z,45.30
2018-02-21T11:24:20.155Z,47.47
2018-02-21T11:26:49.172Z,44.53
2018-02-21T11:29:21.824Z,45.40
2018-02-21T11:31:54.375Z,42.27
2018-02-21T11:34:23.769Z,44.33
2018-02-21T11:36:52.823Z,43.43
2018-02-21T11:39:23.906Z,43.53
2018-02-21T11:41:53.288Z,43.37
2018-02-21T11:44:26.940Z,44.50
2018-02-21T11:46:56.040Z,43.27
2018-02-21T11:49:32.684Z,44.23
2018-02-21T11:52:02.595Z,45.93
2018-02-21T11:54:31.634Z,43.80
2018-02-21T11:57:00.981Z,43.83
2018-02-21T11:59:33.104Z,43.60
2018-02-21T12:02:02.929Z,45.67
2018-02-21T12:04:34.339Z,44.93
2018-02-21T12:07:03.417Z,44.27
2018-02-21T12:09:39.621Z,43.63
2018-02-21T12:12:09.580Z,45.17
2018-02-21T12:14:38.747Z,43.00
2018-02-21T12:17:08.850Z,43.83
2018-02-21T12:19:40.938Z,42.53
2018-02-21T12:22:09.948Z,42.83
2018-02-21T12:24:42.695Z,42.60
2018-02-21T12:27:12.497Z,43.47
2018-02-21T12:29:45.832Z,41.60
2018-02-21T12:32:15.052Z,41.83
2018-02-21T12:34:48.076Z,39.23
2018-02-21T12:37:17.194Z,39.33
2018-02-21T12:39:57.513Z,40.57
2018-02-21T12:42:26.820Z,39.03
2018-02-21T12:44:55.915Z,37.03
2018-02-21T12:47:24.971Z,37.20
2018-02-21T12:49:55.152Z,37.43
2018-02-21T12:52:25.024Z,42.10
2018-02-21T12:54:58.028Z,39.30
2018-02-21T12:57:28.160Z,39.10
2018-02-21T13:00:01.695Z,40.10
2018-02-21T13:02:31.190Z,38.80
2018-02-21T13:05:03.856Z,40.60
2018-02-21T13:07:33.040Z,39.60
2018-02-21T13:10:06.476Z,39.53
2018-02-21T13:12:35.960Z,38.37
2018-02-21T13:15:08.994Z,40.20
2018-02-21T13:17:38.067Z,41.47
2018-02-21T13:20:14.655Z,39.27
2018-02-21T13:22:43.741Z,43.27
2018-02-21T13:25:13.896Z,38.23
2018-02-21T13:27:43.272Z,34.87
2018-02-21T13:30:16.377Z,36.23
2018-02-21T13:32:46.262Z,35.33
2018-02-21T13:35:18.740Z,34.70
2018-02-21T13:37:47.785Z,34.53
2018-02-21T13:40:18.268Z,32.57
2018-02-21T13:42:47.592Z,32.27
2018-02-21T13:45:22.177Z,33.67
2018-02-21T13:47:51.284Z,34.47
2018-02-21T13:50:23.361Z,33.70
2018-02-21T13:52:52.452Z,35.33
2018-02-21T13:55:25.293Z,35.37
2018-02-21T13:57:54.702Z,34.30
2018-02-21T14:00:27.274Z,35.97
2018-02-21T14:02:56.281Z,34.60
2018-02-21T14:05:29.456Z,34.67
2018-02-21T14:07:58.588Z,37.63
2018-02-21T14:10:31.167Z,32.83
2018-02-21T14:13:01.350Z,33.07
2018-02-21T14:15:34.753Z,32.10
2018-02-21T14:18:04.806Z,32.23
2018-02-21T14:20:36.621Z,30.33
2018-02-21T14:23:06.008Z,29.97
2018-02-21T14:25:41.778Z,29.87
2018-02-21T14:28:14.030Z,30.97
2018-02-21T14:30:46.343Z,30.33
2018-02-21T14:33:15.550Z,31.80
2018-02-21T14:35:46.770Z,29.60
2018-02-21T14:38:16.703Z,30.17
2018-02-21T14:40:47.421Z,29.00
2018-02-21T14:43:18.137Z,29.30
2018-02-21T14:45:47.300Z,28.37
2018-02-21T14:48:17.575Z,29.77
2018-02-21T14:50:49.559Z,28.53
2018-02-21T14:53:18.749Z,27.70
2018-02-21T14:55:52.209Z,27.90
2018-02-21T14:58:23.079Z,27.33
2018-02-21T15:00:55.652Z,27.67
2018-02-21T15:03:26.007Z,28.03
2018-02-21T15:05:57.121Z,28.63
2018-02-21T15:08:27.241Z,29.03
2018-02-21T15:11:00.433Z,27.90
2018-02-21T15:13:31.553Z,28.40
2018-02-21T15:16:07.069Z,26.93
2018-02-21T15:18:37.448Z,28.83
2018-02-21T15:21:08.037Z,27.30
2018-02-21T15:23:37.348Z,27.87
2018-02-21T15:26:07.585Z,26.50
2018-02-21T15:28:37.121Z,26.13
2018-02-21T15:31:13.072Z,25.13
2018-02-21T15:33:45.332Z,25.13
2018-02-21T15:36:16.028Z,24.37
2018-02-21T15:38:47.062Z,25.60
2018-02-21T15:41:19.540Z,23.60
2018-02-21T15:43:52.017Z,22.07
2018-02-21T15:46:23.336Z,23.13
2018-02-21T15:48:54.760Z,22.90
2018-02-21T15:51:26.664Z,22.90
2018-02-21T15:53:57.964Z,22.67
2018-02-21T15:56:29.459Z,22.80
2018-02-21T15:59:01.004Z,21.80
2018-02-21T16:01:31.690Z,21.87
2018-02-21T16:04:02.786Z,23.63
2018-02-21T16:06:34.229Z,22.83
2018-02-21T16:09:06.376Z,23.47
2018-02-21T16:11:38.463Z,22.33
2018-02-21T16:14:12.086Z,22.20
2018-02-21T16:16:43.762Z,23.13
2018-02-21T16:19:16.263Z,21.47
2018-02-21T16:21:49.278Z,23.30
2018-02-21T16:24:21.444Z,22.93
2018-02-21T16:26:53.044Z,21.73
2018-02-21T16:29:23.842Z,21.77
2018-02-21T16:31:54.985Z,22.40
2018-02-21T16:34:26.804Z,21.10
2018-02-21T16:37:00.488Z,20.47
2018-02-21T16:39:36.872Z,19.63
2018-02-21T16:42:08.984Z,21.63
2018-02-21T16:44:47.955Z,18.93
2018-02-21T16:47:18.115Z,20.40
2018-02-21T16:49:48.965Z,19.83
2018-02-21T16:52:20.902Z,19.47
2018-02-21T16:54:52.913Z,20.80
2018-02-21T16:57:24.392Z,18.63
2018-02-21T16:59:57.464Z,19.90
2018-02-21T17:02:28.111Z,20.07
2018-02-21T17:04:59.910Z,19.57
2018-02-21T17:07:30.270Z,21.03
2018-02-21T17:10:03.792Z,19.90
2018-02-21T17:15:00.050Z,18.37
2018-02-21T17:17:30.646Z,18.47
2018-02-21T17:20:02.090Z,18.73
2018-02-21T17:22:34.212Z,19.77
2018-02-21T17:25:05.516Z,19.13
2018-02-21T17:27:37.556Z,20.40
2018-02-21T17:30:08.826Z,20.40
2018-02-21T17:32:40.590Z,19.70
2018-02-21T17:35:13.333Z,20.67
2018-02-21T17:37:44.950Z,19.43
2018-02-21T17:40:20.684Z,20.03
2018-02-21T17:42:53.430Z,19.30
2018-02-21T17:45:26.123Z,18.63
2018-02-21T17:47:58.107Z,20.13
2018-02-21T17:50:29.713Z,20.67
2018-02-21T17:53:01.884Z,21.00
2018-02-21T17:55:33.779Z,21.37
2018-02-21T17:58:06.239Z,20.00
2018-02-21T18:00:39.675Z,21.53
2018-02-21T18:03:16.490Z,20.63
2018-02-21T18:05:51.245Z,19.57
2018-02-21T18:08:24.947Z,20.13
2018-02-21T18:10:57.524Z,19.53
2018-02-21T18:13:29.945Z,20.20
2018-02-21T18:16:01.722Z,20.23
2018-02-21T18:18:35.219Z,20.77
2018-02-21T18:21:11.398Z,20.43
2018-02-21T18:23:44.712Z,21.00
2018-02-21T18:26:17.222Z,20.87
2018-02-21T18:28:50.117Z,21.40
2018-02-21T18:31:28.013Z,21.37
2018-02-21T18:34:01.453Z,20.70
2018-02-21T18:39:00.187Z,20.43
2018-02-21T18:41:40.106Z,21.43
2018-02-21T18:44:12.825Z,20.40
2018-02-21T18:46:52.387Z,20.60
2018-02-21T18:49:24.897Z,20.80
2018-02-21T18:51:58.386Z,20.73
2018-02-21T18:54:40.123Z,21.40
2018-02-21T18:57:13.116Z,20.57
2018-02-21T18:59:46.441Z,21.37
2018-02-21T19:02:19.056Z,21.40
2018-02-21T19:04:51.796Z,22.27
2018-02-21T19:07:24.658Z,21.53
2018-02-21T19:09:56.537Z,22.07
2018-02-21T19:12:29.342Z,22.20
2018-02-21T19:15:00.997Z,23.33
2018-02-21T19:17:33.127Z,22.17
2018-02-21T19:20:05.603Z,20.80
2018-02-21T19:22:38.526Z,21.87
2018-02-21T19:27:34.053Z,20.23
2018-02-21T19:30:08.577Z,22.07
2018-02-21T19:32:44.737Z,22.73
2018-02-21T19:35:19.516Z,20.80
2018-02-21T19:37:51.813Z,23.10
2018-02-21T19:40:24.971Z,23.87
2018-02-21T19:43:01.659Z,22.37
2018-02-21T19:45:33.890Z,21.13
2018-02-21T19:48:11.372Z,22.20
2018-02-21T19:50:44.022Z,22.80
2018-02-21T19:53:16.609Z,22.80
2018-02-21T19:55:50.239Z,22.07
2018-02-21T19:58:23.333Z,24.10
2018-02-21T20:00:56.077Z,22.00
2018-02-21T20:03:30.756Z,23.63
2018-02-21T20:06:02.968Z,23.10
2018-02-21T20:08:38.986Z,22.17
2018-02-21T20:11:16.676Z,22.67
2018-02-21T20:14:00.991Z,23.70
2018-02-21T20:16:32.882Z,24.20
2018-02-21T20:19:04.908Z,23.43
2018-02-21T20:21:37.775Z,25.77
2018-02-21T20:24:11.334Z,22.80
2018-02-21T20:26:43.524Z,22.87
2018-02-21T20:31:55.837Z,23.73
2018-02-21T20:34:34.204Z,23.07
2018-02-21T20:37:09.197Z,24.43
2018-02-21T20:39:41.270Z,23.80
2018-02-21T20:42:13.984Z,23.70
2018-02-21T20:44:47.017Z,24.67
2018-02-21T20:47:18.371Z,25.43
2018-02-21T20:49:51.963Z,25.30
2018-02-21T20:52:33.821Z,24.13
2018-02-21T20:55:07.710Z,23.93
2018-02-21T20:57:41.492Z,23.50
2018-02-21T21:00:15.556Z,23.20
2018-02-21T21:02:47.171Z,24.73
2018-02-21T21:05:18.916Z,24.97
2018-02-21T21:07:52.207Z,24.13
2018-02-21T21:10:25.577Z,24.10
2018-02-21T21:12:59.275Z,24.47
2018-02-21T21:15:32.087Z,23.47
2018-02-21T21:18:04.750Z,22.90
2018-02-21T21:23:14.932Z,22.10
2018-02-21T21:25:58.711Z,23.87
2018-02-21T21:28:32.462Z,23.67
2018-02-21T21:31:04.778Z,24.73
2018-02-21T21:33:36.752Z,22.93
2018-02-21T21:36:07.946Z,22.97
2018-02-21T21:38:38.992Z,24.60
2018-02-21T21:41:10.615Z,24.93
2018-02-21T21:43:41.629Z,24.47
2018-02-21T21:46:10.988Z,22.70
2018-02-21T21:48:41.843Z,23.70
2018-02-21T21:51:12.727Z,22.57
2018-02-21T21:53:43.722Z,24.43
2018-02-21T21:56:13.653Z,23.70
2018-02-21T21:58:44.215Z,24.60
2018-02-21T22:01:13.434Z,24.53
2018-02-21T22:03:43.288Z,23.13
2018-02-21T22:06:12.761Z,23.00
2018-02-21T22:08:42.589Z,23.10
2018-02-21T22:11:12.447Z,23.20
2018-02-21T22:13:41.502Z,22.87
2018-02-21T22:16:14.313Z,23.40
2018-02-21T22:18:43.706Z,23.33
2018-02-21T22:21:16.616Z,24.43
2018-02-21T22:23:45.754Z,23.93
2018-02-21T22:26:18.130Z,24.77
2018-02-21T22:28:47.268Z,23.17
2018-02-21T22:31:24.607Z,23.77
2018-02-21T22:33:53.820Z,21.93
2018-02-21T22:36:22.860Z,23.17
2018-02-21T22:38:51.930Z,22.53
2018-02-21T22:41:28.511Z,23.10
2018-02-21T22:43:57.518Z,23.83
2018-02-21T22:46:26.642Z,21.77
2018-02-21T22:48:56.128Z,22.60
2018-02-21T22:51:28.555Z,23.23
2018-02-21T22:53:57.600Z,22.27
2018-02-21T22:56:32.209Z,22.47
2018-02-21T22:59:01.575Z,22.80
2018-02-21T23:01:34.008Z,23.73
2018-02-21T23:04:03.116Z,21.33
2018-02-21T23:06:34.395Z,22.87
2018-02-21T23:09:03.811Z,22.03
2018-02-21T23:11:36.844Z,22.50
2018-02-21T23:14:05.863Z,23.77
2018-02-21T23:16:42.257Z,22.13
2018-02-21T23:19:11.746Z,23.90
2018-02-21T23:21:40.792Z,22.67
2018-02-21T23:24:10.516Z,23.53
2018-02-21T23:26:47.248Z,21.93
2018-02-21T23:29:17.032Z,22.83
2018-02-21T23:32:10.792Z,21.60
2018-02-21T23:34:46.788Z,22.13
2018-02-21T23:37:16.094Z,21.80
2018-02-21T23:39:48.913Z,22.13
2018-02-21T23:42:18.001Z,22.13
2018-02-21T23:44:54.778Z,21.10
2018-02-21T23:47:24.060Z,21.73
2018-02-21T23:49:53.562Z,23.07
2018-02-21T23:52:23.659Z,23.73
2018-02-21T23:54:55.768Z,22.70
2018-02-21T23:57:24.797Z,20.90
2018-02-21T23:59:57.493Z,22.43
